sensor_id;sensor_type;location;lat;lon;timestamp;P1;durP1;ratioP1;P2;durP2;ratioP2
71343;SDS011;59146;43.850;25.948;2023-01-30T00:01:05;21.45;;;11.30;;
71343;SDS011;59146;43.850;25.948;2023-01-30T00:03:35;21.65;;;10.88;;
71343;SDS011;59146;43.850;25.948;2023-01-30T00:06:01;21.63;;;11.00;;
71343;SDS011;59146;43.850;25.948;2023-01-30T00:08:26;19.48;;;10.20;;
71343;SDS011;59146;43.850;25.948;2023-01-30T00:10:52;20.75;;;10.95;;
71343;SDS011;59146;43.850;25.948;2023-01-30T00:13:17;20.75;;;10.25;;
71343;SDS011;59146;43.850;25.948;2023-01-30T00:15:42;22.63;;;10.63;;
71343;SDS011;59146;43.850;25.948;2023-01-30T00:18:08;20.58;;;10.02;;
71343;SDS011;59146;43.850;25.948;2023-01-30T00:20:34;17.13;;;9.77;;
71343;SDS011;59146;43.850;25.948;2023-01-30T00:22:59;23.20;;;10.43;;
71343;SDS011;59146;43.850;25.948;2023-01-30T00:25:25;23.10;;;10.27;;
71343;SDS011;59146;43.850;25.948;2023-01-30T00:27:52;22.65;;;11.00;;
71343;SDS011;59146;43.850;25.948;2023-01-30T00:30:17;21.35;;;10.57;;
71343;SDS011;59146;43.850;25.948;2023-01-30T00:32:43;19.40;;;9.05;;
71343;SDS011;59146;43.850;25.948;2023-01-30T00:35:08;26.30;;;10.35;;
71343;SDS011;59146;43.850;25.948;2023-01-30T00:37:34;22.35;;;11.43;;
71343;SDS011;59146;43.850;25.948;2023-01-30T00:39:59;22.75;;;10.23;;
71343;SDS011;59146;43.850;25.948;2023-01-30T00:42:25;20.65;;;9.80;;
71343;SDS011;59146;43.850;25.948;2023-01-30T00:45:09;19.88;;;10.98;;
71343;SDS011;59146;43.850;25.948;2023-01-30T00:47:54;18.15;;;9.38;;
71343;SDS011;59146;43.850;25.948;2023-01-30T00:50:20;20.08;;;10.23;;
71343;SDS011;59146;43.850;25.948;2023-01-30T00:52:45;21.13;;;10.75;;
71343;SDS011;59146;43.850;25.948;2023-01-30T00:55:11;23.45;;;10.75;;
71343;SDS011;59146;43.850;25.948;2023-01-30T00:57:36;19.52;;;9.88;;
71343;SDS011;59146;43.850;25.948;2023-01-30T01:00:02;20.30;;;9.48;;
71343;SDS011;59146;43.850;25.948;2023-01-30T01:02:29;22.85;;;10.43;;
71343;SDS011;59146;43.850;25.948;2023-01-30T01:04:55;22.70;;;9.57;;
71343;SDS011;59146;43.850;25.948;2023-01-30T01:07:21;20.85;;;9.27;;
71343;SDS011;59146;43.850;25.948;2023-01-30T01:09:46;19.17;;;9.60;;
71343;SDS011;59146;43.850;25.948;2023-01-30T01:12:11;18.13;;;9.10;;
71343;SDS011;59146;43.850;25.948;2023-01-30T01:14:37;22.73;;;9.45;;
71343;SDS011;59146;43.850;25.948;2023-01-30T01:17:02;21.75;;;10.95;;
71343;SDS011;59146;43.850;25.948;2023-01-30T01:19:28;23.30;;;10.63;;
71343;SDS011;59146;43.850;25.948;2023-01-30T01:21:53;20.38;;;10.38;;
71343;SDS011;59146;43.850;25.948;2023-01-30T01:24:19;18.50;;;9.18;;
71343;SDS011;59146;43.850;25.948;2023-01-30T01:26:44;20.40;;;8.88;;
71343;SDS011;59146;43.850;25.948;2023-01-30T01:29:10;25.08;;;10.57;;
71343;SDS011;59146;43.850;25.948;2023-01-30T01:31:37;18.58;;;10.05;;
71343;SDS011;59146;43.850;25.948;2023-01-30T01:34:03;19.67;;;10.02;;
71343;SDS011;59146;43.850;25.948;2023-01-30T01:36:28;22.65;;;10.18;;
71343;SDS011;59146;43.850;25.948;2023-01-30T01:38:53;21.17;;;10.63;;
71343;SDS011;59146;43.850;25.948;2023-01-30T01:41:19;19.63;;;9.88;;
71343;SDS011;59146;43.850;25.948;2023-01-30T01:46:43;22.40;;;9.85;;
71343;SDS011;59146;43.850;25.948;2023-01-30T01:49:25;18.73;;;10.15;;
71343;SDS011;59146;43.850;25.948;2023-01-30T01:52:07;21.83;;;10.68;;
71343;SDS011;59146;43.850;25.948;2023-01-30T01:54:37;20.40;;;9.15;;
71343;SDS011;59146;43.850;25.948;2023-01-30T01:57:05;21.58;;;10.38;;
71343;SDS011;59146;43.850;25.948;2023-01-30T01:59:51;17.60;;;9.50;;
71343;SDS011;59146;43.850;25.948;2023-01-30T02:02:24;21.63;;;10.38;;
71343;SDS011;59146;43.850;25.948;2023-01-30T02:04:51;22.00;;;10.13;;
71343;SDS011;59146;43.850;25.948;2023-01-30T02:07:34;24.02;;;10.57;;
71343;SDS011;59146;43.850;25.948;2023-01-30T02:10:03;22.65;;;11.48;;
71343;SDS011;59146;43.850;25.948;2023-01-30T02:12:32;22.35;;;12.15;;
71343;SDS011;59146;43.850;25.948;2023-01-30T02:14:57;24.83;;;12.43;;
71343;SDS011;59146;43.850;25.948;2023-01-30T02:17:24;26.17;;;13.05;;
71343;SDS011;59146;43.850;25.948;2023-01-30T02:19:54;32.20;;;15.57;;
71343;SDS011;59146;43.850;25.948;2023-01-30T02:30:55;37.72;;;18.38;;
71343;SDS011;59146;43.850;25.948;2023-01-30T02:36:33;37.20;;;19.50;;
71343;SDS011;59146;43.850;25.948;2023-01-30T02:39:13;37.10;;;18.77;;
71343;SDS011;59146;43.850;25.948;2023-01-30T02:47:29;46.65;;;21.45;;
71343;SDS011;59146;43.850;25.948;2023-01-30T02:50:42;38.92;;;19.65;;
71343;SDS011;59146;43.850;25.948;2023-01-30T02:52:51;40.72;;;19.42;;
71343;SDS011;59146;43.850;25.948;2023-01-30T02:55:18;41.70;;;20.08;;
71343;SDS011;59146;43.850;25.948;2023-01-30T02:57:44;42.58;;;18.70;;
71343;SDS011;59146;43.850;25.948;2023-01-30T03:00:09;41.15;;;19.42;;
71343;SDS011;59146;43.850;25.948;2023-01-30T03:11:08;41.03;;;20.70;;
71343;SDS011;59146;43.850;25.948;2023-01-30T03:16:21;40.53;;;18.52;;
71343;SDS011;59146;43.850;25.948;2023-01-30T03:18:48;35.05;;;14.00;;
71343;SDS011;59146;43.850;25.948;2023-01-30T03:21:13;47.10;;;19.80;;
71343;SDS011;59146;43.850;25.948;2023-01-30T03:23:39;39.25;;;17.58;;
71343;SDS011;59146;43.850;25.948;2023-01-30T03:26:05;43.85;;;17.42;;
71343;SDS011;59146;43.850;25.948;2023-01-30T03:28:34;40.28;;;19.50;;
71343;SDS011;59146;43.850;25.948;2023-01-30T03:31:00;40.47;;;18.13;;
71343;SDS011;59146;43.850;25.948;2023-01-30T03:33:25;42.70;;;19.17;;
71343;SDS011;59146;43.850;25.948;2023-01-30T03:35:50;36.53;;;17.92;;
71343;SDS011;59146;43.850;25.948;2023-01-30T03:38:16;42.08;;;18.67;;
71343;SDS011;59146;43.850;25.948;2023-01-30T03:40:42;41.47;;;18.08;;
71343;SDS011;59146;43.850;25.948;2023-01-30T03:43:08;48.05;;;20.83;;
71343;SDS011;59146;43.850;25.948;2023-01-30T03:45:33;41.60;;;18.52;;
71343;SDS011;59146;43.850;25.948;2023-01-30T03:47:59;45.20;;;19.52;;
71343;SDS011;59146;43.850;25.948;2023-01-30T03:50:24;40.80;;;19.48;;
71343;SDS011;59146;43.850;25.948;2023-01-30T03:52:50;45.38;;;20.33;;
71343;SDS011;59146;43.850;25.948;2023-01-30T03:55:15;46.42;;;20.05;;
71343;SDS011;59146;43.850;25.948;2023-01-30T03:57:40;46.20;;;19.17;;
71343;SDS011;59146;43.850;25.948;2023-01-30T04:00:06;45.55;;;18.48;;
71343;SDS011;59146;43.850;25.948;2023-01-30T04:02:32;40.03;;;18.45;;
71343;SDS011;59146;43.850;25.948;2023-01-30T04:04:57;43.83;;;19.13;;
71343;SDS011;59146;43.850;25.948;2023-01-30T04:07:23;41.30;;;18.60;;
71343;SDS011;59146;43.850;25.948;2023-01-30T04:09:48;42.75;;;19.20;;
71343;SDS011;59146;43.850;25.948;2023-01-30T04:12:14;39.85;;;17.80;;
71343;SDS011;59146;43.850;25.948;2023-01-30T04:14:39;40.20;;;18.15;;
71343;SDS011;59146;43.850;25.948;2023-01-30T04:17:04;41.53;;;17.67;;
71343;SDS011;59146;43.850;25.948;2023-01-30T04:19:30;39.28;;;18.15;;
71343;SDS011;59146;43.850;25.948;2023-01-30T04:21:55;38.25;;;18.27;;
71343;SDS011;59146;43.850;25.948;2023-01-30T04:24:21;40.15;;;18.83;;
71343;SDS011;59146;43.850;25.948;2023-01-30T04:26:46;47.75;;;18.73;;
71343;SDS011;59146;43.850;25.948;2023-01-30T04:29:12;41.42;;;18.23;;
71343;SDS011;59146;43.850;25.948;2023-01-30T04:31:37;39.40;;;17.55;;
71343;SDS011;59146;43.850;25.948;2023-01-30T04:34:03;40.22;;;17.58;;
71343;SDS011;59146;43.850;25.948;2023-01-30T04:36:28;42.78;;;17.48;;
71343;SDS011;59146;43.850;25.948;2023-01-30T04:38:54;36.05;;;16.67;;
71343;SDS011;59146;43.850;25.948;2023-01-30T04:41:21;39.80;;;17.33;;
71343;SDS011;59146;43.850;25.948;2023-01-30T04:43:46;40.13;;;17.02;;
71343;SDS011;59146;43.850;25.948;2023-01-30T04:46:12;41.92;;;19.00;;
71343;SDS011;59146;43.850;25.948;2023-01-30T04:48:37;40.20;;;17.35;;
71343;SDS011;59146;43.850;25.948;2023-01-30T04:51:03;43.05;;;18.00;;
71343;SDS011;59146;43.850;25.948;2023-01-30T04:53:29;46.83;;;18.35;;
71343;SDS011;59146;43.850;25.948;2023-01-30T04:55:54;41.78;;;17.42;;
71343;SDS011;59146;43.850;25.948;2023-01-30T04:58:19;43.88;;;18.10;;
71343;SDS011;59146;43.850;25.948;2023-01-30T05:00:45;43.63;;;19.92;;
71343;SDS011;59146;43.850;25.948;2023-01-30T05:03:11;41.55;;;17.92;;
71343;SDS011;59146;43.850;25.948;2023-01-30T05:05:37;40.53;;;20.05;;
71343;SDS011;59146;43.850;25.948;2023-01-30T05:08:02;44.28;;;18.63;;
71343;SDS011;59146;43.850;25.948;2023-01-30T05:10:28;42.17;;;18.70;;
71343;SDS011;59146;43.850;25.948;2023-01-30T05:12:53;44.80;;;19.02;;
71343;SDS011;59146;43.850;25.948;2023-01-30T05:15:19;39.40;;;17.75;;
71343;SDS011;59146;43.850;25.948;2023-01-30T05:17:44;55.90;;;26.67;;
71343;SDS011;59146;43.850;25.948;2023-01-30T05:20:10;37.03;;;17.95;;
71343;SDS011;59146;43.850;25.948;2023-01-30T05:22:37;38.03;;;18.05;;
71343;SDS011;59146;43.850;25.948;2023-01-30T05:25:03;34.60;;;17.60;;
71343;SDS011;59146;43.850;25.948;2023-01-30T05:27:28;41.08;;;16.63;;
71343;SDS011;59146;43.850;25.948;2023-01-30T05:29:54;49.08;;;23.52;;
71343;SDS011;59146;43.850;25.948;2023-01-30T05:32:19;47.42;;;22.92;;
71343;SDS011;59146;43.850;25.948;2023-01-30T05:34:45;51.15;;;21.77;;
71343;SDS011;59146;43.850;25.948;2023-01-30T05:37:13;50.55;;;23.85;;
71343;SDS011;59146;43.850;25.948;2023-01-30T05:39:38;37.25;;;19.58;;
71343;SDS011;59146;43.850;25.948;2023-01-30T05:42:04;41.72;;;20.83;;
71343;SDS011;59146;43.850;25.948;2023-01-30T05:44:29;48.15;;;22.23;;
71343;SDS011;59146;43.850;25.948;2023-01-30T05:46:55;52.63;;;26.17;;
71343;SDS011;59146;43.850;25.948;2023-01-30T05:49:20;58.65;;;27.48;;
71343;SDS011;59146;43.850;25.948;2023-01-30T05:51:46;50.42;;;25.17;;
71343;SDS011;59146;43.850;25.948;2023-01-30T05:54:12;42.20;;;22.40;;
71343;SDS011;59146;43.850;25.948;2023-01-30T05:56:37;40.65;;;19.58;;
71343;SDS011;59146;43.850;25.948;2023-01-30T05:59:03;33.80;;;17.27;;
71343;SDS011;59146;43.850;25.948;2023-01-30T06:01:28;40.42;;;18.88;;
71343;SDS011;59146;43.850;25.948;2023-01-30T06:03:54;41.97;;;20.25;;
71343;SDS011;59146;43.850;25.948;2023-01-30T06:06:20;41.08;;;21.33;;
71343;SDS011;59146;43.850;25.948;2023-01-30T06:08:46;41.97;;;20.00;;
71343;SDS011;59146;43.850;25.948;2023-01-30T06:11:13;36.97;;;15.68;;
71343;SDS011;59146;43.850;25.948;2023-01-30T06:13:39;31.90;;;14.32;;
71343;SDS011;59146;43.850;25.948;2023-01-30T06:16:06;35.80;;;15.77;;
71343;SDS011;59146;43.850;25.948;2023-01-30T06:18:33;28.13;;;13.68;;
71343;SDS011;59146;43.850;25.948;2023-01-30T06:20:58;28.42;;;13.95;;
71343;SDS011;59146;43.850;25.948;2023-01-30T06:23:24;26.23;;;13.65;;
71343;SDS011;59146;43.850;25.948;2023-01-30T06:25:50;26.40;;;13.52;;
71343;SDS011;59146;43.850;25.948;2023-01-30T06:28:16;30.40;;;13.05;;
71343;SDS011;59146;43.850;25.948;2023-01-30T06:30:42;31.98;;;14.25;;
71343;SDS011;59146;43.850;25.948;2023-01-30T06:33:08;29.33;;;13.15;;
71343;SDS011;59146;43.850;25.948;2023-01-30T06:35:35;27.52;;;12.52;;
71343;SDS011;59146;43.850;25.948;2023-01-30T06:38:01;27.20;;;13.02;;
71343;SDS011;59146;43.850;25.948;2023-01-30T06:40:27;30.10;;;13.88;;
71343;SDS011;59146;43.850;25.948;2023-01-30T06:42:52;24.73;;;12.05;;
71343;SDS011;59146;43.850;25.948;2023-01-30T06:45:18;29.17;;;12.88;;
71343;SDS011;59146;43.850;25.948;2023-01-30T06:47:47;24.95;;;12.70;;
71343;SDS011;59146;43.850;25.948;2023-01-30T06:50:16;30.25;;;12.85;;
71343;SDS011;59146;43.850;25.948;2023-01-30T06:52:44;30.48;;;13.70;;
71343;SDS011;59146;43.850;25.948;2023-01-30T06:55:12;30.67;;;13.32;;
71343;SDS011;59146;43.850;25.948;2023-01-30T06:57:39;26.73;;;13.43;;
71343;SDS011;59146;43.850;25.948;2023-01-30T07:00:06;25.85;;;12.80;;
71343;SDS011;59146;43.850;25.948;2023-01-30T07:02:34;26.70;;;12.32;;
71343;SDS011;59146;43.850;25.948;2023-01-30T07:05:03;22.85;;;12.30;;
71343;SDS011;59146;43.850;25.948;2023-01-30T07:07:30;28.20;;;12.50;;
71343;SDS011;59146;43.850;25.948;2023-01-30T07:09:56;25.50;;;13.13;;
71343;SDS011;59146;43.850;25.948;2023-01-30T07:12:22;25.85;;;12.57;;
71343;SDS011;59146;43.850;25.948;2023-01-30T07:14:49;30.10;;;13.00;;
71343;SDS011;59146;43.850;25.948;2023-01-30T07:17:15;33.42;;;13.77;;
71343;SDS011;59146;43.850;25.948;2023-01-30T07:19:41;32.50;;;13.43;;
71343;SDS011;59146;43.850;25.948;2023-01-30T07:22:07;29.20;;;14.73;;
71343;SDS011;59146;43.850;25.948;2023-01-30T07:24:33;30.35;;;14.82;;
71343;SDS011;59146;43.850;25.948;2023-01-30T07:26:58;30.23;;;16.42;;
71343;SDS011;59146;43.850;25.948;2023-01-30T07:29:23;31.80;;;15.57;;
71343;SDS011;59146;43.850;25.948;2023-01-30T07:31:49;31.48;;;15.13;;
71343;SDS011;59146;43.850;25.948;2023-01-30T07:34:15;29.73;;;14.93;;
71343;SDS011;59146;43.850;25.948;2023-01-30T07:36:41;31.90;;;15.07;;
71343;SDS011;59146;43.850;25.948;2023-01-30T07:39:06;30.27;;;15.00;;
71343;SDS011;59146;43.850;25.948;2023-01-30T07:41:33;29.42;;;14.85;;
71343;SDS011;59146;43.850;25.948;2023-01-30T07:43:59;27.63;;;14.27;;
71343;SDS011;59146;43.850;25.948;2023-01-30T07:46:25;28.77;;;13.75;;
71343;SDS011;59146;43.850;25.948;2023-01-30T07:48:51;30.60;;;14.68;;
71343;SDS011;59146;43.850;25.948;2023-01-30T07:51:16;32.50;;;15.73;;
71343;SDS011;59146;43.850;25.948;2023-01-30T07:53:41;28.25;;;13.52;;
71343;SDS011;59146;43.850;25.948;2023-01-30T07:56:07;30.15;;;14.65;;
71343;SDS011;59146;43.850;25.948;2023-01-30T07:58:34;29.23;;;14.43;;
71343;SDS011;59146;43.850;25.948;2023-01-30T08:00:59;29.05;;;15.05;;
71343;SDS011;59146;43.850;25.948;2023-01-30T08:03:25;30.52;;;14.50;;
71343;SDS011;59146;43.850;25.948;2023-01-30T08:05:50;28.17;;;14.30;;
71343;SDS011;59146;43.850;25.948;2023-01-30T08:08:17;31.98;;;15.68;;
71343;SDS011;59146;43.850;25.948;2023-01-30T08:10:42;29.30;;;15.25;;
71343;SDS011;59146;43.850;25.948;2023-01-30T08:13:08;34.33;;;16.60;;
71343;SDS011;59146;43.850;25.948;2023-01-30T08:15:33;32.15;;;17.23;;
71343;SDS011;59146;43.850;25.948;2023-01-30T08:17:59;34.92;;;15.68;;
71343;SDS011;59146;43.850;25.948;2023-01-30T08:20:25;27.80;;;14.90;;
71343;SDS011;59146;43.850;25.948;2023-01-30T08:22:51;36.38;;;16.55;;
71343;SDS011;59146;43.850;25.948;2023-01-30T08:25:17;35.08;;;16.20;;
71343;SDS011;59146;43.850;25.948;2023-01-30T08:27:42;34.58;;;16.23;;
71343;SDS011;59146;43.850;25.948;2023-01-30T08:30:08;29.83;;;15.43;;
71343;SDS011;59146;43.850;25.948;2023-01-30T08:32:36;36.45;;;17.50;;
71343;SDS011;59146;43.850;25.948;2023-01-30T08:35:01;32.85;;;16.55;;
71343;SDS011;59146;43.850;25.948;2023-01-30T08:37:27;34.22;;;16.50;;
71343;SDS011;59146;43.850;25.948;2023-01-30T08:39:52;31.83;;;16.02;;
71343;SDS011;59146;43.850;25.948;2023-01-30T08:42:18;35.22;;;16.48;;
71343;SDS011;59146;43.850;25.948;2023-01-30T08:44:43;34.92;;;16.73;;
71343;SDS011;59146;43.850;25.948;2023-01-30T08:47:08;35.55;;;18.02;;
71343;SDS011;59146;43.850;25.948;2023-01-30T08:49:34;35.85;;;17.88;;
71343;SDS011;59146;43.850;25.948;2023-01-30T08:51:59;30.83;;;16.13;;
71343;SDS011;59146;43.850;25.948;2023-01-30T08:54:24;34.13;;;17.00;;
71343;SDS011;59146;43.850;25.948;2023-01-30T08:56:50;32.70;;;15.27;;
71343;SDS011;59146;43.850;25.948;2023-01-30T08:59:15;29.00;;;14.95;;
71343;SDS011;59146;43.850;25.948;2023-01-30T09:01:43;29.48;;;15.13;;
71343;SDS011;59146;43.850;25.948;2023-01-30T09:04:09;36.05;;;15.70;;
71343;SDS011;59146;43.850;25.948;2023-01-30T09:06:34;28.52;;;14.65;;
71343;SDS011;59146;43.850;25.948;2023-01-30T09:09:00;31.77;;;16.55;;
71343;SDS011;59146;43.850;25.948;2023-01-30T09:11:25;31.83;;;16.10;;
71343;SDS011;59146;43.850;25.948;2023-01-30T09:13:51;33.28;;;15.93;;
71343;SDS011;59146;43.850;25.948;2023-01-30T09:16:16;37.05;;;17.27;;
71343;SDS011;59146;43.850;25.948;2023-01-30T09:18:42;35.33;;;17.73;;
71343;SDS011;59146;43.850;25.948;2023-01-30T09:21:09;40.97;;;16.48;;
71343;SDS011;59146;43.850;25.948;2023-01-30T09:23:36;35.20;;;15.45;;
71343;SDS011;59146;43.850;25.948;2023-01-30T09:26:02;36.90;;;16.63;;
71343;SDS011;59146;43.850;25.948;2023-01-30T09:28:28;37.63;;;17.77;;
71343;SDS011;59146;43.850;25.948;2023-01-30T09:30:57;39.47;;;18.05;;
71343;SDS011;59146;43.850;25.948;2023-01-30T09:33:23;49.20;;;21.55;;
71343;SDS011;59146;43.850;25.948;2023-01-30T09:35:49;43.95;;;19.00;;
71343;SDS011;59146;43.850;25.948;2023-01-30T09:38:16;44.67;;;18.67;;
71343;SDS011;59146;43.850;25.948;2023-01-30T09:40:48;43.67;;;18.67;;
71343;SDS011;59146;43.850;25.948;2023-01-30T09:43:53;41.90;;;18.42;;
71343;SDS011;59146;43.850;25.948;2023-01-30T09:52:09;38.92;;;16.52;;
71343;SDS011;59146;43.850;25.948;2023-01-30T09:54:43;39.67;;;17.30;;
71343;SDS011;59146;43.850;25.948;2023-01-30T09:57:11;36.55;;;15.75;;
71343;SDS011;59146;43.850;25.948;2023-01-30T10:00:02;41.22;;;16.63;;
71343;SDS011;59146;43.850;25.948;2023-01-30T10:05:42;37.38;;;15.45;;
71343;SDS011;59146;43.850;25.948;2023-01-30T10:11:23;39.20;;;15.20;;
71343;SDS011;59146;43.850;25.948;2023-01-30T10:25:02;38.33;;;15.55;;
71343;SDS011;59146;43.850;25.948;2023-01-30T10:27:31;30.00;;;14.02;;
71343;SDS011;59146;43.850;25.948;2023-01-30T10:30:00;36.75;;;15.95;;
71343;SDS011;59146;43.850;25.948;2023-01-30T10:32:29;27.52;;;12.98;;
71343;SDS011;59146;43.850;25.948;2023-01-30T10:35:20;31.17;;;14.75;;
71343;SDS011;59146;43.850;25.948;2023-01-30T10:37:57;26.38;;;12.00;;
71343;SDS011;59146;43.850;25.948;2023-01-30T10:40:43;26.77;;;13.15;;
71343;SDS011;59146;43.850;25.948;2023-01-30T10:48:48;30.58;;;15.20;;
71343;SDS011;59146;43.850;25.948;2023-01-30T10:51:25;29.63;;;13.73;;
71343;SDS011;59146;43.850;25.948;2023-01-30T10:59:59;32.20;;;15.52;;
71343;SDS011;59146;43.850;25.948;2023-01-30T11:07:41;27.33;;;13.45;;
71343;SDS011;59146;43.850;25.948;2023-01-30T11:10:21;24.35;;;13.93;;
71343;SDS011;59146;43.850;25.948;2023-01-30T11:12:52;27.00;;;15.83;;
71343;SDS011;59146;43.850;25.948;2023-01-30T11:15:20;30.75;;;14.57;;
71343;SDS011;59146;43.850;25.948;2023-01-30T11:17:48;28.77;;;15.43;;
71343;SDS011;59146;43.850;25.948;2023-01-30T11:20:16;27.00;;;13.48;;
71343;SDS011;59146;43.850;25.948;2023-01-30T11:22:44;31.20;;;13.18;;
71343;SDS011;59146;43.850;25.948;2023-01-30T11:25:18;26.23;;;14.63;;
71343;SDS011;59146;43.850;25.948;2023-01-30T11:27:55;26.00;;;13.82;;
71343;SDS011;59146;43.850;25.948;2023-01-30T11:30:27;28.23;;;13.75;;
71343;SDS011;59146;43.850;25.948;2023-01-30T11:33:10;26.60;;;12.57;;
71343;SDS011;59146;43.850;25.948;2023-01-30T11:35:51;25.05;;;13.38;;
71343;SDS011;59146;43.850;25.948;2023-01-30T11:38:22;27.67;;;15.02;;
71343;SDS011;59146;43.850;25.948;2023-01-30T11:40:53;27.63;;;14.68;;
71343;SDS011;59146;43.850;25.948;2023-01-30T11:43:27;22.13;;;11.45;;
71343;SDS011;59146;43.850;25.948;2023-01-30T11:45:53;26.42;;;13.15;;
71343;SDS011;59146;43.850;25.948;2023-01-30T11:48:19;24.23;;;13.25;;
71343;SDS011;59146;43.850;25.948;2023-01-30T11:50:53;21.38;;;11.80;;
71343;SDS011;59146;43.850;25.948;2023-01-30T11:56:23;28.73;;;14.85;;
71343;SDS011;59146;43.850;25.948;2023-01-30T11:59:19;26.52;;;13.60;;
71343;SDS011;59146;43.850;25.948;2023-01-30T12:01:50;28.13;;;15.35;;
71343;SDS011;59146;43.850;25.948;2023-01-30T12:04:25;29.25;;;15.10;;
71343;SDS011;59146;43.850;25.948;2023-01-30T12:07:03;24.33;;;13.27;;
71343;SDS011;59146;43.850;25.948;2023-01-30T12:09:40;26.48;;;13.95;;
71343;SDS011;59146;43.850;25.948;2023-01-30T12:17:55;25.40;;;14.07;;
71343;SDS011;59146;43.850;25.948;2023-01-30T12:25:43;24.88;;;13.70;;
71343;SDS011;59146;43.850;25.948;2023-01-30T12:30:55;24.65;;;14.55;;
71343;SDS011;59146;43.850;25.948;2023-01-30T12:33:27;30.80;;;16.38;;
71343;SDS011;59146;43.850;25.948;2023-01-30T12:51:45;29.37;;;15.63;;
71343;SDS011;59146;43.850;25.948;2023-01-30T13:05:05;32.72;;;17.85;;
71343;SDS011;59146;43.850;25.948;2023-01-30T13:07:50;34.17;;;17.95;;
71343;SDS011;59146;43.850;25.948;2023-01-30T13:15:48;31.08;;;18.25;;
71343;SDS011;59146;43.850;25.948;2023-01-30T13:18:25;28.98;;;16.75;;
71343;SDS011;59146;43.850;25.948;2023-01-30T13:26:41;30.58;;;16.48;;
71343;SDS011;59146;43.850;25.948;2023-01-30T13:29:12;29.75;;;16.48;;
71343;SDS011;59146;43.850;25.948;2023-01-30T13:31:50;31.83;;;17.60;;
71343;SDS011;59146;43.850;25.948;2023-01-30T13:34:24;29.92;;;15.88;;
71343;SDS011;59146;43.850;25.948;2023-01-30T13:36:57;27.85;;;15.68;;
71343;SDS011;59146;43.850;25.948;2023-01-30T13:42:07;23.95;;;13.98;;
71343;SDS011;59146;43.850;25.948;2023-01-30T13:45:01;24.17;;;13.45;;
71343;SDS011;59146;43.850;25.948;2023-01-30T13:47:34;27.73;;;14.02;;
71343;SDS011;59146;43.850;25.948;2023-01-30T13:50:18;25.63;;;12.98;;
71343;SDS011;59146;43.850;25.948;2023-01-30T13:53:17;24.20;;;13.02;;
71343;SDS011;59146;43.850;25.948;2023-01-30T13:58:50;25.40;;;13.70;;
71343;SDS011;59146;43.850;25.948;2023-01-30T14:01:23;28.52;;;15.45;;
71343;SDS011;59146;43.850;25.948;2023-01-30T14:04:54;27.05;;;14.05;;
71343;SDS011;59146;43.850;25.948;2023-01-30T14:07:37;26.05;;;13.52;;
71343;SDS011;59146;43.850;25.948;2023-01-30T14:10:05;32.75;;;15.00;;
71343;SDS011;59146;43.850;25.948;2023-01-30T14:12:47;46.80;;;20.17;;
71343;SDS011;59146;43.850;25.948;2023-01-30T14:15:27;56.85;;;20.50;;
71343;SDS011;59146;43.850;25.948;2023-01-30T14:20:21;69.10;;;23.40;;
71343;SDS011;59146;43.850;25.948;2023-01-30T14:22:49;65.03;;;21.42;;
71343;SDS011;59146;43.850;25.948;2023-01-30T14:35:45;72.20;;;26.00;;
71343;SDS011;59146;43.850;25.948;2023-01-30T14:53:59;64.40;;;24.08;;
71343;SDS011;59146;43.850;25.948;2023-01-30T14:56:51;74.43;;;26.50;;
71343;SDS011;59146;43.850;25.948;2023-01-30T14:59:31;70.80;;;26.55;;
71343;SDS011;59146;43.850;25.948;2023-01-30T15:02:02;60.75;;;24.33;;
71343;SDS011;59146;43.850;25.948;2023-01-30T15:04:32;70.67;;;25.33;;
71343;SDS011;59146;43.850;25.948;2023-01-30T15:07:04;58.08;;;24.10;;
71343;SDS011;59146;43.850;25.948;2023-01-30T15:09:34;61.92;;;24.75;;
71343;SDS011;59146;43.850;25.948;2023-01-30T15:12:36;58.20;;;22.10;;
71343;SDS011;59146;43.850;25.948;2023-01-30T15:32:27;68.63;;;24.80;;
71343;SDS011;59146;43.850;25.948;2023-01-30T15:34:58;57.95;;;22.25;;
71343;SDS011;59146;43.850;25.948;2023-01-30T15:42:52;49.10;;;19.83;;
71343;SDS011;59146;43.850;25.948;2023-01-30T15:45:28;59.70;;;20.98;;
71343;SDS011;59146;43.850;25.948;2023-01-30T15:51:04;51.00;;;20.63;;
71343;SDS011;59146;43.850;25.948;2023-01-30T15:53:30;55.70;;;22.95;;
71343;SDS011;59146;43.850;25.948;2023-01-30T15:56:00;63.20;;;23.90;;
71343;SDS011;59146;43.850;25.948;2023-01-30T15:58:27;53.15;;;23.02;;
71343;SDS011;59146;43.850;25.948;2023-01-30T16:00:55;57.03;;;20.33;;
71343;SDS011;59146;43.850;25.948;2023-01-30T16:03:33;59.10;;;21.75;;
71343;SDS011;59146;43.850;25.948;2023-01-30T16:06:04;45.58;;;19.55;;
71343;SDS011;59146;43.850;25.948;2023-01-30T16:08:31;53.90;;;20.90;;
71343;SDS011;59146;43.850;25.948;2023-01-30T16:10:59;47.00;;;20.35;;
71343;SDS011;59146;43.850;25.948;2023-01-30T16:13:25;47.60;;;20.15;;
71343;SDS011;59146;43.850;25.948;2023-01-30T16:18:37;45.85;;;18.80;;
71343;SDS011;59146;43.850;25.948;2023-01-30T16:21:15;45.85;;;19.17;;
71343;SDS011;59146;43.850;25.948;2023-01-30T16:26:46;49.97;;;20.42;;
71343;SDS011;59146;43.850;25.948;2023-01-30T16:29:16;50.92;;;21.23;;
71343;SDS011;59146;43.850;25.948;2023-01-30T16:31:45;52.25;;;21.85;;
71343;SDS011;59146;43.850;25.948;2023-01-30T16:36:49;52.25;;;20.63;;
71343;SDS011;59146;43.850;25.948;2023-01-30T16:39:28;50.90;;;21.45;;
71343;SDS011;59146;43.850;25.948;2023-01-30T16:41:59;48.03;;;20.50;;
71343;SDS011;59146;43.850;25.948;2023-01-30T16:44:27;50.60;;;19.73;;
71343;SDS011;59146;43.850;25.948;2023-01-30T16:46:55;47.45;;;18.63;;
71343;SDS011;59146;43.850;25.948;2023-01-30T16:59:47;53.40;;;21.85;;
71343;SDS011;59146;43.850;25.948;2023-01-30T17:02:22;48.55;;;22.67;;
71343;SDS011;59146;43.850;25.948;2023-01-30T17:04:52;51.20;;;21.45;;
71343;SDS011;59146;43.850;25.948;2023-01-30T17:07:29;41.50;;;21.10;;
71343;SDS011;59146;43.850;25.948;2023-01-30T17:09:57;44.03;;;20.52;;
71343;SDS011;59146;43.850;25.948;2023-01-30T17:17:41;41.78;;;18.48;;
71343;SDS011;59146;43.850;25.948;2023-01-30T17:20:07;42.15;;;20.25;;
71343;SDS011;59146;43.850;25.948;2023-01-30T17:22:34;43.40;;;20.52;;
71343;SDS011;59146;43.850;25.948;2023-01-30T17:25:02;41.63;;;20.27;;
71343;SDS011;59146;43.850;25.948;2023-01-30T17:27:30;39.35;;;20.15;;
71343;SDS011;59146;43.850;25.948;2023-01-30T17:29:56;41.10;;;20.35;;
71343;SDS011;59146;43.850;25.948;2023-01-30T17:32:21;38.15;;;19.33;;
71343;SDS011;59146;43.850;25.948;2023-01-30T17:34:47;42.08;;;21.38;;
71343;SDS011;59146;43.850;25.948;2023-01-30T17:37:13;40.88;;;20.35;;
71343;SDS011;59146;43.850;25.948;2023-01-30T17:42:09;38.17;;;19.52;;
71343;SDS011;59146;43.850;25.948;2023-01-30T17:44:39;60.42;;;30.75;;
71343;SDS011;59146;43.850;25.948;2023-01-30T17:47:05;59.65;;;29.83;;
71343;SDS011;59146;43.850;25.948;2023-01-30T17:49:33;39.47;;;20.20;;
71343;SDS011;59146;43.850;25.948;2023-01-30T17:51:58;42.60;;;21.67;;